AAL weather

Aalborg Airport
Aalborg, North Jutland, Denmark

Public forecast

Using degrees Celsius for public forecast. Weather courtesy of forecast.io.

Current aviation weather report (METAR) for Aalborg Airport

Retrieved 2019/10/22 12:20 UTC (36 minutes ago):

EKYT 221220Z AUTO 24014KT 9999 FEW036/// SCT041/// BKN240/// 12/09 Q1016

Aviation forecast (TAF) for Aalborg Airport

Retrieved 2019/10/22 15:00 UTC (0 seconds ago):

TAF EKYT 221404Z 2215/2315 24010KT 9999 BKN035 PROB40 2215/2216 24015G25KT